createdAt,value
2019-06-08T00:01:30.002Z,14.13
2019-06-08T00:03:59.301Z,14.17
2019-06-08T00:06:28.462Z,14.22
2019-06-08T00:08:57.687Z,14.26
2019-06-08T00:11:26.896Z,14.29
2019-06-08T00:13:56.106Z,14.33
2019-06-08T00:16:25.365Z,14.36
2019-06-08T00:18:54.662Z,14.40
2019-06-08T00:21:24.219Z,14.42
2019-06-08T00:23:53.479Z,14.46
2019-06-08T00:26:22.677Z,14.47
2019-06-08T00:28:51.894Z,14.50
2019-06-08T00:31:21.694Z,14.54
2019-06-08T00:33:50.950Z,14.58
2019-06-08T00:36:20.890Z,14.62
2019-06-08T00:38:50.593Z,14.67
2019-06-08T00:41:20.699Z,14.72
2019-06-08T00:43:51.181Z,14.75
2019-06-08T00:46:21.478Z,14.80
2019-06-08T00:48:50.615Z,14.86
2019-06-08T00:51:20.982Z,14.92
2019-06-08T00:53:50.272Z,15.01
2019-06-08T00:56:19.751Z,15.08
2019-06-08T00:58:48.911Z,15.15
2019-06-08T01:01:22.047Z,15.22
2019-06-08T01:03:49.267Z,15.30
2019-06-08T01:06:18.821Z,15.36
2019-06-08T01:08:47.410Z,15.40
2019-06-08T01:11:16.526Z,15.43
2019-06-08T01:13:45.682Z,15.48
2019-06-08T01:16:15.002Z,15.50
2019-06-08T01:18:44.282Z,15.52
2019-06-08T01:21:13.547Z,15.52
2019-06-08T01:23:42.726Z,15.54
2019-06-08T01:26:12.830Z,15.54
2019-06-08T01:28:42.199Z,15.55
2019-06-08T01:31:11.349Z,15.57
2019-06-08T01:33:40.538Z,15.56
2019-06-08T01:36:09.810Z,15.55
2019-06-08T01:38:39.106Z,15.53
2019-06-08T01:41:08.284Z,15.55
2019-06-08T01:43:37.445Z,15.55
2019-06-08T01:46:06.648Z,15.56
2019-06-08T01:48:35.935Z,15.55
2019-06-08T01:51:06.795Z,15.54
2019-06-08T01:53:35.960Z,15.52
2019-06-08T01:56:05.349Z,15.51
2019-06-08T01:58:34.654Z,15.51
2019-06-08T02:01:03.769Z,15.50
2019-06-08T02:03:34.673Z,15.47
2019-06-08T02:06:04.326Z,15.48
2019-06-08T02:08:34.702Z,15.49
2019-06-08T02:11:04.323Z,15.46
2019-06-08T02:13:33.177Z,15.45
2019-06-08T02:16:02.394Z,15.45
2019-06-08T02:18:41.845Z,15.45
2019-06-08T02:21:02.461Z,15.45
2019-06-08T02:23:33.028Z,15.45
2019-06-08T02:26:02.277Z,15.45
2019-06-08T02:28:31.898Z,15.43
2019-06-08T02:31:01.161Z,15.44
2019-06-08T02:33:30.813Z,15.43
2019-06-08T02:36:01.403Z,15.38
2019-06-08T02:38:32.239Z,15.39
2019-06-08T02:41:01.534Z,15.39
2019-06-08T02:43:30.919Z,15.37
2019-06-08T02:46:00.134Z,15.40
2019-06-08T02:48:30.023Z,15.40
2019-06-08T02:51:00.531Z,15.41
2019-06-08T02:53:30.144Z,15.39
2019-06-08T02:56:00.294Z,15.40
2019-06-08T02:58:31.113Z,15.41
2019-06-08T03:01:00.501Z,15.41
2019-06-08T03:03:31.720Z,15.40
2019-06-08T03:06:03.278Z,15.38
2019-06-08T03:08:39.103Z,15.39
2019-06-08T03:11:08.098Z,15.40
2019-06-08T03:13:39.494Z,15.41
2019-06-08T03:16:08.184Z,15.40
2019-06-08T03:18:38.284Z,15.39
2019-06-08T03:21:08.461Z,15.36
2019-06-08T03:23:38.753Z,15.31
2019-06-08T03:26:08.623Z,15.29
2019-06-08T03:28:39.960Z,15.29
2019-06-08T03:31:08.810Z,15.29
2019-06-08T03:33:45.771Z,15.28
2019-06-08T03:36:09.186Z,15.27
2019-06-08T03:38:40.206Z,15.23
2019-06-08T03:41:09.648Z,15.22
2019-06-08T03:43:40.825Z,15.21
2019-06-08T03:46:11.021Z,15.21
2019-06-08T03:48:40.133Z,15.21
2019-06-08T03:51:10.349Z,15.19
2019-06-08T03:53:40.529Z,15.18
2019-06-08T03:56:10.864Z,15.19
2019-06-08T03:58:40.608Z,15.15
2019-06-08T04:01:11.290Z,15.14
2019-06-08T04:03:40.361Z,15.12
2019-06-08T04:06:10.592Z,15.12
2019-06-08T04:08:40.915Z,15.09
2019-06-08T04:11:10.686Z,15.08
2019-06-08T04:13:42.006Z,15.04
2019-06-08T04:16:11.371Z,15.03
2019-06-08T04:18:42.017Z,15.05
2019-06-08T04:21:11.281Z,15.05
2019-06-08T04:23:42.624Z,15.06
2019-06-08T04:26:11.762Z,15.04
2019-06-08T04:28:42.473Z,15.04
2019-06-08T04:31:11.798Z,15.05
2019-06-08T04:33:42.082Z,15.04
2019-06-08T04:36:11.303Z,15.05
2019-06-08T04:38:41.312Z,15.05
2019-06-08T04:41:10.931Z,15.04
2019-06-08T04:43:42.834Z,15.01
2019-06-08T04:46:11.981Z,14.98
2019-06-08T04:48:42.858Z,14.97
2019-06-08T04:51:13.216Z,15.00
2019-06-08T04:53:43.187Z,14.99
2019-06-08T04:56:13.437Z,14.96
2019-06-08T04:58:45.989Z,14.95
2019-06-08T05:01:13.537Z,14.95
2019-06-08T05:03:43.356Z,14.95
2019-06-08T05:06:13.151Z,14.92
2019-06-08T05:08:43.151Z,14.91
2019-06-08T05:11:12.498Z,14.90
2019-06-08T05:13:43.191Z,14.90
2019-06-08T05:16:12.663Z,14.93
2019-06-08T05:18:43.110Z,14.91
2019-06-08T05:21:12.406Z,14.90
2019-06-08T05:23:41.607Z,14.91
2019-06-08T05:26:10.775Z,14.93
2019-06-08T05:28:41.053Z,14.93
2019-06-08T05:31:10.537Z,14.90
2019-06-08T05:33:39.710Z,14.89
2019-06-08T05:36:08.929Z,14.88
2019-06-08T05:38:39.393Z,14.86
2019-06-08T05:41:08.714Z,14.91
2019-06-08T05:43:37.887Z,14.94
2019-06-08T05:46:07.081Z,14.93
2019-06-08T05:48:36.341Z,14.92
2019-06-08T05:51:05.499Z,14.92
2019-06-08T05:53:35.474Z,14.94
2019-06-08T05:56:04.805Z,14.97
2019-06-08T05:58:34.004Z,15.00
2019-06-08T06:01:03.179Z,14.96
2019-06-08T06:03:32.342Z,14.95
2019-06-08T06:06:01.552Z,14.92
2019-06-08T06:08:30.766Z,14.85
2019-06-08T06:10:59.987Z,14.76
2019-06-08T06:13:29.150Z,14.70
2019-06-08T06:15:58.427Z,14.65
2019-06-08T06:18:27.605Z,14.53
2019-06-08T06:21:09.863Z,14.46
2019-06-08T06:23:27.744Z,14.39
2019-06-08T06:25:56.995Z,14.35
2019-06-08T06:28:26.168Z,14.35
2019-06-08T06:30:55.470Z,14.31
2019-06-08T06:33:24.607Z,14.36
2019-06-08T06:35:53.840Z,14.39
2019-06-08T06:38:23.038Z,14.41
2019-06-08T06:40:52.657Z,14.43
2019-06-08T06:43:22.840Z,14.49
2019-06-08T06:45:52.295Z,14.51
2019-06-08T06:48:23.547Z,14.51
2019-06-08T06:50:52.631Z,14.56
2019-06-08T06:53:21.840Z,14.58
2019-06-08T06:55:51.067Z,14.58
2019-06-08T06:58:20.334Z,14.63
2019-06-08T07:00:49.551Z,14.68
2019-06-08T07:03:18.780Z,14.69
2019-06-08T07:05:48.013Z,14.71
2019-06-08T07:08:17.258Z,14.72
2019-06-08T07:10:46.639Z,14.72
2019-06-08T07:13:16.812Z,14.68
2019-06-08T07:15:47.311Z,14.71
2019-06-08T07:18:17.133Z,14.73
2019-06-08T07:20:48.128Z,14.73
2019-06-08T07:23:17.326Z,14.72
2019-06-08T07:25:46.568Z,14.67
2019-06-08T07:28:15.748Z,14.62
2019-06-08T07:30:45.011Z,14.57
2019-06-08T07:33:14.171Z,14.54
2019-06-08T07:35:43.350Z,14.52
2019-06-08T07:38:12.562Z,14.53
2019-06-08T07:40:41.899Z,14.63
2019-06-08T07:43:13.101Z,14.75
2019-06-08T07:45:42.746Z,14.87
2019-06-08T07:48:11.913Z,14.90
2019-06-08T07:50:41.148Z,14.88
2019-06-08T07:53:10.331Z,14.83
2019-06-08T07:55:39.566Z,14.75
2019-06-08T07:58:08.882Z,14.72
2019-06-08T08:00:38.061Z,14.70
2019-06-08T08:03:10.244Z,14.73
2019-06-08T08:05:39.878Z,14.71
2019-06-08T08:08:08.349Z,14.61
2019-06-08T08:10:37.491Z,14.57
2019-06-08T08:13:06.726Z,14.52
2019-06-08T08:15:36.040Z,14.47
2019-06-08T08:18:05.606Z,14.44
2019-06-08T08:20:34.775Z,14.49
2019-06-08T08:23:06.205Z,14.50
2019-06-08T08:25:34.929Z,14.47
2019-06-08T08:28:04.093Z,14.40
2019-06-08T08:30:33.280Z,14.30
2019-06-08T08:33:03.366Z,14.23
2019-06-08T08:35:32.768Z,14.23
2019-06-08T08:38:04.411Z,14.26
2019-06-08T08:40:32.858Z,14.24
2019-06-08T08:43:02.027Z,14.22
2019-06-08T08:45:31.283Z,14.22
2019-06-08T08:48:21.170Z,14.19
2019-06-08T08:50:31.367Z,14.15
2019-06-08T08:53:02.225Z,14.11
2019-06-08T08:55:31.600Z,14.03
2019-06-08T08:58:02.167Z,13.96
2019-06-08T09:00:31.447Z,13.90
2019-06-08T09:03:21.964Z,13.91
2019-06-08T09:05:31.774Z,13.95
2019-06-08T09:08:02.609Z,13.94
2019-06-08T09:10:31.823Z,13.94
2019-06-08T09:13:04.211Z,13.95
2019-06-08T09:15:32.236Z,13.95
2019-06-08T09:18:03.705Z,13.96
2019-06-08T09:20:32.353Z,13.98
2019-06-08T09:23:11.728Z,13.97
2019-06-08T09:25:32.481Z,13.97
2019-06-08T09:28:04.659Z,13.98
2019-06-08T09:30:32.646Z,13.96
2019-06-08T09:33:02.906Z,13.96
2019-06-08T09:35:32.696Z,13.94
2019-06-08T09:38:04.796Z,13.94
2019-06-08T09:40:32.817Z,13.92
2019-06-08T09:43:09.178Z,13.90
2019-06-08T09:45:34.942Z,13.93
2019-06-08T09:48:05.766Z,13.95
2019-06-08T09:50:38.453Z,14.00
2019-06-08T09:53:23.196Z,14.03
2019-06-08T09:55:41.296Z,14.04
2019-06-08T09:58:11.720Z,14.08
2019-06-08T10:00:40.305Z,14.13
2019-06-08T10:03:09.794Z,14.17
2019-06-08T10:05:39.175Z,14.18
2019-06-08T10:08:09.541Z,14.21
2019-06-08T10:10:38.917Z,14.25
2019-06-08T10:13:09.661Z,14.21
2019-06-08T10:15:39.001Z,14.22
2019-06-08T10:18:08.585Z,14.24
2019-06-08T10:20:38.618Z,14.23
2019-06-08T10:23:24.402Z,14.24
2019-06-08T10:25:38.785Z,14.31
2019-06-08T10:28:14.056Z,14.37
2019-06-08T10:30:39.562Z,14.49
2019-06-08T10:33:10.080Z,14.61
2019-06-08T10:35:40.427Z,14.67
2019-06-08T10:38:12.002Z,14.73
2019-06-08T10:41:04.833Z,14.83
2019-06-08T10:43:29.464Z,14.85
2019-06-08T10:46:03.070Z,14.92
2019-06-08T10:48:30.707Z,14.97
2019-06-08T10:51:03.404Z,15.12
2019-06-08T10:53:45.183Z,15.27
2019-06-08T10:56:03.446Z,15.36
2019-06-08T10:58:33.675Z,15.47
2019-06-08T11:01:10.205Z,15.54
2019-06-08T11:03:38.680Z,15.48
2019-06-08T11:06:11.322Z,15.47
2019-06-08T11:08:39.010Z,15.54
2019-06-08T11:11:11.742Z,15.62
2019-06-08T11:13:40.112Z,15.78
2019-06-08T11:16:12.719Z,15.74
2019-06-08T11:18:41.756Z,15.67
2019-06-08T11:21:12.844Z,15.61
2019-06-08T11:23:42.853Z,15.59
2019-06-08T11:26:19.843Z,15.58
2019-06-08T11:28:43.283Z,15.62
2019-06-08T11:31:15.886Z,15.67
2019-06-08T11:33:45.276Z,15.66
2019-06-08T11:36:15.096Z,15.62
2019-06-08T11:38:44.243Z,15.60
2019-06-08T11:41:13.852Z,15.64
2019-06-08T11:43:42.564Z,15.65
2019-06-08T11:46:11.821Z,15.73
2019-06-08T11:48:41.690Z,15.89
2019-06-08T11:51:13.044Z,15.91
2019-06-08T11:53:42.247Z,15.90
2019-06-08T11:56:13.403Z,15.88
2019-06-08T11:58:43.578Z,15.89
2019-06-08T12:01:14.739Z,16.04
2019-06-08T12:03:43.620Z,16.16
2019-06-08T12:06:14.392Z,16.19
2019-06-08T12:08:43.773Z,16.21
2019-06-08T12:11:18.765Z,16.30
2019-06-08T12:13:43.916Z,16.39
2019-06-08T12:16:15.699Z,16.79
2019-06-08T12:18:44.072Z,16.80
2019-06-08T12:21:14.568Z,16.95
2019-06-08T12:23:43.851Z,17.32
2019-06-08T12:26:14.385Z,17.52
2019-06-08T12:28:44.128Z,17.42
2019-06-08T12:34:15.529Z,17.75
2019-06-08T12:36:45.211Z,17.57
2019-06-08T12:39:14.366Z,17.46
2019-06-08T12:41:43.768Z,17.43
2019-06-08T12:44:15.552Z,17.33
2019-06-08T12:46:44.921Z,17.19
2019-06-08T12:49:14.676Z,17.01
2019-06-08T12:51:44.919Z,16.85
2019-06-08T12:54:14.467Z,16.77
2019-06-08T12:56:43.627Z,16.73
2019-06-08T12:59:16.454Z,16.70
2019-06-08T13:01:44.135Z,16.78
2019-06-08T13:04:13.811Z,16.93
2019-06-08T13:06:43.052Z,17.23
2019-06-08T13:09:13.458Z,17.35
2019-06-08T13:11:43.250Z,17.63
2019-06-08T13:14:12.976Z,17.69
2019-06-08T13:16:42.535Z,17.72
2019-06-08T13:19:13.112Z,17.98
2019-06-08T13:21:42.654Z,17.98
2019-06-08T13:24:33.312Z,17.82
2019-06-08T13:27:02.869Z,17.64
2019-06-08T13:29:32.064Z,17.50
2019-06-08T13:32:01.538Z,17.41
2019-06-08T13:34:30.942Z,17.66
2019-06-08T13:37:00.189Z,17.79
2019-06-08T13:39:29.378Z,17.82
2019-06-08T13:41:58.621Z,17.91
2019-06-08T13:44:28.092Z,17.75
2019-06-08T13:46:57.797Z,17.86
2019-06-08T13:49:30.565Z,17.56
2019-06-08T13:51:58.500Z,17.30
2019-06-08T13:54:31.221Z,17.30
2019-06-08T13:56:59.174Z,17.13
2019-06-08T13:59:30.799Z,16.97
2019-06-08T14:01:59.668Z,16.82
2019-06-08T14:04:29.059Z,16.64
2019-06-08T14:06:58.569Z,16.73
2019-06-08T14:09:31.522Z,16.90
2019-06-08T14:11:59.087Z,16.71
2019-06-08T14:14:29.307Z,16.39
2019-06-08T14:16:59.000Z,16.13
2019-06-08T14:19:48.323Z,15.96
2019-06-08T14:22:20.094Z,15.88
2019-06-08T14:24:48.021Z,16.07
2019-06-08T14:27:17.205Z,16.50
2019-06-08T14:29:48.480Z,16.96
2019-06-08T14:32:19.106Z,17.04
2019-06-08T14:34:50.189Z,16.83
2019-06-08T14:37:20.027Z,16.58
2019-06-08T14:39:48.782Z,16.43
2019-06-08T14:42:23.526Z,16.19
2019-06-08T14:44:48.985Z,16.25
2019-06-08T14:47:18.747Z,16.18
2019-06-08T14:49:49.471Z,15.92
2019-06-08T14:52:20.442Z,15.96
2019-06-08T14:54:51.282Z,16.12
2019-06-08T14:57:23.291Z,16.36
2019-06-08T14:59:56.039Z,16.71
2019-06-08T15:02:26.168Z,16.95
2019-06-08T15:04:56.518Z,17.05
2019-06-08T15:07:29.145Z,17.25
2019-06-08T15:09:58.180Z,17.12
2019-06-08T15:12:28.558Z,16.98
2019-06-08T15:14:59.056Z,17.18
2019-06-08T15:17:30.841Z,17.32
2019-06-08T15:19:59.307Z,17.55
2019-06-08T15:22:30.043Z,17.24
2019-06-08T15:24:59.467Z,16.94
2019-06-08T15:27:31.985Z,16.89
2019-06-08T15:30:00.908Z,17.12
2019-06-08T15:32:33.662Z,17.12
2019-06-08T15:35:01.047Z,16.98
2019-06-08T15:37:33.364Z,17.12
2019-06-08T15:40:03.023Z,17.23
2019-06-08T15:42:32.484Z,17.28
2019-06-08T15:45:02.683Z,17.25
2019-06-08T15:47:32.476Z,17.08
2019-06-08T15:50:01.615Z,16.87
2019-06-08T15:52:33.003Z,16.71
2019-06-08T15:55:02.210Z,16.61
2019-06-08T15:57:37.557Z,16.57
2019-06-08T16:00:02.530Z,16.77
2019-06-08T16:02:31.782Z,16.99
2019-06-08T16:05:00.969Z,17.22
2019-06-08T16:07:31.296Z,17.58
2019-06-08T16:10:01.085Z,17.85
2019-06-08T16:12:30.664Z,18.00
2019-06-08T16:14:59.081Z,18.14
2019-06-08T16:17:29.250Z,18.22
2019-06-08T16:19:58.465Z,18.44
2019-06-08T16:22:27.747Z,18.44
2019-06-08T16:24:56.997Z,18.68
2019-06-08T16:27:26.229Z,18.85
2019-06-08T16:29:55.411Z,19.01
2019-06-08T16:32:24.633Z,19.04
2019-06-08T16:34:53.801Z,18.98
2019-06-08T16:37:22.995Z,18.95
2019-06-08T16:39:52.232Z,19.10
2019-06-08T16:42:21.400Z,19.30
2019-06-08T16:44:50.629Z,19.53
2019-06-08T16:47:19.816Z,19.50
2019-06-08T16:49:48.982Z,19.58
2019-06-08T16:52:18.370Z,19.74
2019-06-08T16:54:47.557Z,19.54
2019-06-08T16:57:16.816Z,19.33
2019-06-08T16:59:46.004Z,19.18
2019-06-08T17:02:16.960Z,19.05
2019-06-08T17:04:46.174Z,18.86
2019-06-08T17:07:15.346Z,18.81
2019-06-08T17:09:45.431Z,18.79
2019-06-08T17:12:14.653Z,18.91
2019-06-08T17:14:43.854Z,18.95
2019-06-08T17:17:13.089Z,18.99
2019-06-08T17:19:42.551Z,19.02
2019-06-08T17:22:11.836Z,18.97
2019-06-08T17:24:41.058Z,18.98
2019-06-08T17:27:26.029Z,19.05
2019-06-08T17:29:41.220Z,19.12
2019-06-08T17:32:10.417Z,19.16
2019-06-08T17:34:40.226Z,19.05
2019-06-08T17:37:09.728Z,19.01
2019-06-08T17:39:40.040Z,19.01
2019-06-08T17:42:09.309Z,18.88
2019-06-08T17:44:38.594Z,18.62
2019-06-08T17:47:07.848Z,18.57
2019-06-08T17:49:37.045Z,18.40
2019-06-08T17:52:06.283Z,18.20
2019-06-08T17:54:36.690Z,18.03
2019-06-08T17:57:05.907Z,18.01
2019-06-08T17:59:35.362Z,17.92
2019-06-08T18:02:07.270Z,17.79
2019-06-08T18:04:38.095Z,17.63
2019-06-08T18:07:07.460Z,17.54
2019-06-08T18:09:39.257Z,17.45
2019-06-08T18:12:08.810Z,17.38
2019-06-08T18:14:40.462Z,17.44
2019-06-08T18:17:08.935Z,17.40
2019-06-08T18:19:41.893Z,17.48
2019-06-08T18:22:15.292Z,17.51
2019-06-08T18:24:41.901Z,17.49
2019-06-08T18:27:11.005Z,17.41
2019-06-08T18:29:42.395Z,17.36
2019-06-08T18:32:11.572Z,17.38
2019-06-08T18:34:43.256Z,17.41
2019-06-08T18:37:13.309Z,17.32
2019-06-08T18:39:44.406Z,17.24
2019-06-08T18:42:13.848Z,17.17
2019-06-08T18:44:44.483Z,17.12
2019-06-08T18:47:13.915Z,17.07
2019-06-08T18:49:44.196Z,17.01
2019-06-08T18:52:13.689Z,16.99
2019-06-08T18:54:44.182Z,16.96
2019-06-08T18:57:13.545Z,16.91
2019-06-08T18:59:46.599Z,16.87
2019-06-08T19:02:13.850Z,16.84
2019-06-08T19:04:43.145Z,16.79
2019-06-08T19:07:12.467Z,16.71
2019-06-08T19:09:43.735Z,16.67
2019-06-08T19:12:12.980Z,16.63
2019-06-08T19:14:43.532Z,16.55
2019-06-08T19:17:12.844Z,16.52
2019-06-08T19:19:45.803Z,16.49
2019-06-08T19:22:13.534Z,16.44
2019-06-08T19:24:44.827Z,16.40
2019-06-08T19:27:13.886Z,16.36
2019-06-08T19:29:44.184Z,16.31
2019-06-08T19:32:14.381Z,16.27
2019-06-08T19:34:45.151Z,16.22
2019-06-08T19:37:14.533Z,16.19
2019-06-08T19:39:45.954Z,16.15
2019-06-08T19:42:14.911Z,16.10
2019-06-08T19:44:54.168Z,16.05
2019-06-08T19:47:17.261Z,15.98
2019-06-08T19:49:47.751Z,15.94
2019-06-08T19:52:18.308Z,15.89
2019-06-08T19:54:52.485Z,15.82
2019-06-08T19:57:18.550Z,15.76
2019-06-08T19:59:47.828Z,15.70
2019-06-08T20:02:17.736Z,15.64
2019-06-08T20:04:46.964Z,15.58
2019-06-08T20:07:17.494Z,15.53
2019-06-08T20:09:48.179Z,15.46
2019-06-08T20:12:18.616Z,15.40
2019-06-08T20:14:49.387Z,15.37
2019-06-08T20:17:19.487Z,15.31
2019-06-08T20:19:49.493Z,15.29
2019-06-08T20:22:18.948Z,15.29
2019-06-08T20:24:52.076Z,15.29
2019-06-08T20:27:19.303Z,15.31
2019-06-08T20:29:50.926Z,15.33
2019-06-08T20:32:19.635Z,15.34
2019-06-08T20:34:50.533Z,15.34
2019-06-08T20:37:19.740Z,15.33
2019-06-08T20:40:04.442Z,15.31
2019-06-08T20:42:19.922Z,15.28
2019-06-08T20:44:51.580Z,15.25
2019-06-08T20:47:20.687Z,15.22
2019-06-08T20:49:51.850Z,15.19
2019-06-08T20:52:21.243Z,15.14
2019-06-08T20:54:50.874Z,15.09
2019-06-08T20:57:21.495Z,15.06
2019-06-08T20:59:53.460Z,15.03
2019-06-08T21:02:21.669Z,14.99
2019-06-08T21:04:54.074Z,14.95
2019-06-08T21:07:22.157Z,14.89
2019-06-08T21:09:53.451Z,14.83
2019-06-08T21:12:22.968Z,14.81
2019-06-08T21:14:52.699Z,14.78
2019-06-08T21:17:22.362Z,14.74
2019-06-08T21:19:53.023Z,14.75
2019-06-08T21:22:22.443Z,14.74
2019-06-08T21:24:53.691Z,14.72
2019-06-08T21:27:23.269Z,14.69
2019-06-08T21:29:59.759Z,14.65
2019-06-08T21:32:23.942Z,14.60
2019-06-08T21:34:55.277Z,14.54
2019-06-08T21:37:24.920Z,14.51
2019-06-08T21:39:56.978Z,14.48
2019-06-08T21:42:27.661Z,14.45
2019-06-08T21:44:59.933Z,14.43
2019-06-08T21:47:28.477Z,14.40
2019-06-08T21:50:00.340Z,14.38
2019-06-08T21:52:29.430Z,14.33
2019-06-08T21:55:00.696Z,14.31
2019-06-08T21:57:30.224Z,14.27
2019-06-08T22:00:21.907Z,14.21
2019-06-08T22:02:32.605Z,14.19
2019-06-08T22:05:04.858Z,14.15
2019-06-08T22:07:37.737Z,14.12
2019-06-08T22:10:09.798Z,14.10
2019-06-08T22:12:40.401Z,14.04
2019-06-08T22:15:11.020Z,14.01
2019-06-08T22:17:41.203Z,13.99
2019-06-08T22:20:10.563Z,13.98
2019-06-08T22:22:40.088Z,13.99
2019-06-08T22:25:09.524Z,14.00
2019-06-08T22:27:39.352Z,14.02
2019-06-08T22:30:15.547Z,14.04
2019-06-08T22:32:40.755Z,14.08
2019-06-08T22:35:11.163Z,14.09
2019-06-08T22:37:41.231Z,14.11
2019-06-08T22:40:10.894Z,14.11
2019-06-08T22:42:41.795Z,14.10
2019-06-08T22:45:11.422Z,14.10
2019-06-08T22:47:40.696Z,14.06
2019-06-08T22:50:10.275Z,14.05
2019-06-08T22:52:40.128Z,14.02
2019-06-08T22:55:11.172Z,14.02
2019-06-08T22:57:40.464Z,14.00
2019-06-08T23:00:16.617Z,13.97
2019-06-08T23:02:42.380Z,13.95
2019-06-08T23:05:13.152Z,13.91
2019-06-08T23:07:42.597Z,13.92
2019-06-08T23:10:17.367Z,13.90
2019-06-08T23:12:48.186Z,13.89
2019-06-08T23:15:18.348Z,13.89
2019-06-08T23:17:49.576Z,13.89
2019-06-08T23:20:20.691Z,13.88
2019-06-08T23:22:49.991Z,13.87
2019-06-08T23:25:19.111Z,13.87
2019-06-08T23:27:48.504Z,13.86
2019-06-08T23:30:19.410Z,13.84
2019-06-08T23:32:48.793Z,13.81
2019-06-08T23:35:20.046Z,13.80
2019-06-08T23:37:50.718Z,13.81
2019-06-08T23:40:20.278Z,13.82
2019-06-08T23:42:49.516Z,13.85
2019-06-08T23:45:20.182Z,13.90
2019-06-08T23:47:49.420Z,13.90
2019-06-08T23:50:18.927Z,13.91
2019-06-08T23:52:48.105Z,13.91
2019-06-08T23:55:20.270Z,13.87
2019-06-08T23:57:49.452Z,13.86
